Time;durP1;ratioP1;P1;durP2;ratioP2;P2;SDS_P1;SDS_P2;PMS_P1;PMS_P2;Temp;Humidity;BMP_temperature;BMP_pressure;BME280_temperature;BME280_humidity;BME280_pressure;Samples;Min_cycle;Max_cycle;Signal;HPM_P1;HPM_P2
2021/08/16 00:12:29;;;;;;;8.70;2.47;;;;;;;18.72;92.25;99851.59;714159;1205;114636;-74
2021/08/16 00:27:31;;;;;;;7.47;2.57;;;;;;;18.75;91.76;99818.49;713856;1200;114462;-74
2021/08/16 00:42:33;;;;;;;8.05;3.13;;;;;;;18.54;92.70;99792.89;714011;1177;114195;-74
2021/08/16 00:57:36;;;;;;;6.20;2.23;;;;;;;18.51;92.76;99785.33;714078;1202;114549;-74
2021/08/16 01:12:39;;;;;;;5.38;2.63;;;;;;;18.53;92.14;99772.66;713959;1201;114788;-75
2021/08/16 01:27:41;;;;;;;5.00;2.70;;;;;;;18.55;92.40;99765.31;713994;1202;113862;-74
2021/08/16 01:42:44;;;;;;;6.13;2.87;;;;;;;18.37;92.58;99740.15;713852;1202;114319;-73
2021/08/16 01:57:47;;;;;;;8.93;3.10;;;;;;;18.32;93.72;99737.27;714034;1200;114230;-74
2021/08/16 02:12:49;;;;;;;4.90;3.30;;;;;;;18.22;94.74;99728.86;713880;1202;113833;-75
2021/08/16 02:27:54;;;;;;;7.85;3.20;;;;;;;18.08;95.58;99720.85;714058;1200;113820;-74
2021/08/16 02:42:57;;;;;;;7.48;3.78;;;;;;;18.01;95.82;99706.72;714064;1202;115044;-75
2021/08/16 02:57:59;;;;;;;7.43;3.50;;;;;;;17.90;96.72;99702.77;715023;1199;115017;-74
2021/08/16 03:13:01;;;;;;;7.13;3.90;;;;;;;17.88;97.19;99694.21;714415;1200;114789;-75
2021/08/16 03:28:04;;;;;;;7.43;4.00;;;;;;;17.91;98.54;99685.84;714034;1200;114151;-77
2021/08/16 03:43:07;;;;;;;10.58;3.90;;;;;;;17.97;98.49;99663.03;714398;1201;115135;-74
2021/08/16 03:58:09;;;;;;;8.95;3.73;;;;;;;17.97;100.00;99636.49;714875;1202;115121;-74
2021/08/16 04:13:11;;;;;;;7.83;4.40;;;;;;;18.03;100.00;99614.48;714032;1202;114886;-74
2021/08/16 04:28:13;;;;;;;16.30;7.33;;;;;;;18.20;100.00;99606.96;714217;1200;113893;-74
2021/08/16 04:43:17;;;;;;;10.20;5.53;;;;;;;18.50;100.00;99603.91;714091;1202;114277;-73
2021/08/16 04:58:19;;;;;;;13.20;6.03;;;;;;;18.77;100.00;99604.73;714038;1201;114659;-75
2021/08/16 05:13:21;;;;;;;11.83;5.03;;;;;;;19.16;100.00;99610.22;716961;1165;114303;-75
2021/08/16 05:28:24;;;;;;;8.50;4.63;;;;;;;19.69;100.00;99598.61;714368;1202;115871;-76
2021/08/16 05:43:26;;;;;;;9.60;4.45;;;;;;;20.20;100.00;99578.26;714496;1200;114422;-76
2021/08/16 05:58:28;;;;;;;8.43;5.00;;;;;;;20.98;100.00;99560.20;715027;1200;114092;-76
2021/08/16 06:13:31;;;;;;;9.53;5.63;;;;;;;22.00;98.11;99561.43;714984;1177;113860;-79
2021/08/16 06:28:33;;;;;;;10.20;6.80;;;;;;;22.92;96.63;99537.92;715249;1200;112898;-79
2021/08/16 06:43:35;;;;;;;11.58;7.65;;;;;;;23.36;95.02;99503.54;714839;1200;113735;-76
2021/08/16 06:58:37;;;;;;;11.70;7.90;;;;;;;23.98;94.03;99487.77;714963;1177;113972;-77
2021/08/16 07:13:40;;;;;;;12.25;9.18;;;;;;;24.36;93.61;99475.48;714508;1205;114845;-78
2021/08/16 07:28:46;;;;;;;11.13;8.38;;;;;;;25.46;93.71;99472.05;714907;1200;114199;-78
2021/08/16 07:43:48;;;;;;;14.57;10.13;;;;;;;25.86;89.90;99467.30;716271;1200;115395;-78
2021/08/16 07:58:51;;;;;;;14.33;9.25;;;;;;;26.83;89.47;99460.94;718326;1200;113976;-78
2021/08/16 08:13:53;;;;;;;11.13;9.37;;;;;;;27.21;84.46;99442.75;714515;1200;114636;-78
2021/08/16 08:28:55;;;;;;;12.93;8.63;;;;;;;27.92;81.71;99448.50;715656;1200;113336;-78
2021/08/16 08:43:59;;;;;;;14.80;9.48;;;;;;;28.19;80.15;99464.38;715615;1200;114829;-77
2021/08/16 08:59:02;;;;;;;14.57;8.30;;;;;;;28.36;79.37;99477.56;725531;1199;115846;-78
2021/08/16 09:14:06;;;;;;;13.10;8.10;;;;;;;28.89;76.78;99460.98;714514;1200;115216;-79
2021/08/16 09:29:19;;;;;;;10.50;8.53;;;;;;;29.49;75.07;99458.20;714415;1202;114308;-78
2021/08/16 09:44:22;;;;;;;10.23;7.87;;;;;;;29.54;72.91;99451.97;714612;1199;114979;-77
2021/08/16 09:59:25;;;;;;;22.70;8.38;;;;;;;29.99;71.64;99436.47;715843;1200;114590;-78
2021/08/16 10:14:32;;;;;;;12.00;8.10;;;;;;;30.72;69.24;99419.47;722318;1179;114323;-84
2021/08/16 10:30:04;;;;;;;10.93;7.75;;;;;;;31.02;67.14;99421.75;718174;1178;114302;-84
2021/08/16 10:45:09;;;;;;;11.90;8.00;;;;;;;31.19;65.04;99407.73;718382;1199;114427;-77
2021/08/16 11:00:13;;;;;;;9.40;6.47;;;;;;;32.26;63.95;99394.58;716727;1177;113937;-85
2021/08/16 11:15:19;;;;;;;8.90;6.27;;;;;;;31.58;62.24;99391.41;716732;1191;114373;-85
2021/08/16 11:30:24;;;;;;;9.15;6.25;;;;;;;32.14;60.95;99378.78;717676;1202;113876;-81
2021/08/16 11:45:27;;;;;;;6.55;5.73;;;;;;;31.65;59.91;99381.03;715158;1185;115112;-77
2021/08/16 12:00:33;;;;;;;11.87;5.67;;;;;;;31.88;58.50;99362.98;714154;1200;113958;-75
2021/08/16 12:15:40;;;;;;;6.25;4.68;;;;;;;32.89;57.80;99357.70;715163;1193;114650;-77
2021/08/16 12:30:43;;;;;;;8.95;5.30;;;;;;;32.76;56.94;99347.70;715272;1202;115442;-77
2021/08/16 12:45:56;;;;;;;7.23;4.23;;;;;;;32.68;54.10;99341.84;715349;1200;115372;-77
2021/08/16 13:00:59;;;;;;;6.23;3.98;;;;;;;32.49;52.73;99335.75;714633;1203;115023;-73
2021/08/16 13:16:03;;;;;;;4.70;3.63;;;;;;;32.49;52.04;99311.33;714010;1202;115107;-89
2021/08/16 13:31:05;;;;;;;15.83;3.80;;;;;;;33.13;48.20;99291.41;714392;1202;114696;-78
2021/08/16 13:46:07;;;;;;;6.67;3.37;;;;;;;33.27;48.52;99281.30;713763;1200;114990;-77
2021/08/16 14:01:10;;;;;;;9.88;3.40;;;;;;;33.62;49.53;99248.83;714067;1200;115081;-78
2021/08/16 14:16:16;;;;;;;9.25;3.53;;;;;;;35.68;48.14;99252.45;713935;1200;115299;-77
2021/08/16 14:31:18;;;;;;;6.53;3.30;;;;;;;35.18;44.93;99245.73;713952;1200;113969;-76
2021/08/16 14:46:21;;;;;;;4.47;2.80;;;;;;;30.99;49.60;99222.00;713913;1190;114192;-76
2021/08/16 15:01:24;;;;;;;6.70;3.65;;;;;;;30.18;51.85;99232.95;713940;1200;115373;-77
2021/08/16 15:16:27;;;;;;;4.50;3.60;;;;;;;29.81;53.32;99239.88;714099;1177;113765;-89
2021/08/16 15:31:30;;;;;;;10.95;5.38;;;;;;;26.99;63.00;99338.85;714007;1202;114794;-80
2021/08/16 15:46:33;;;;;;;13.08;6.58;;;;;;;25.36;72.40;99313.59;714057;1200;114921;-84
2021/08/16 16:01:39;;;;;;;7.25;4.50;;;;;;;25.68;77.14;99291.25;714306;1204;114473;-82
2021/08/16 16:16:42;;;;;;;34.55;15.85;;;;;;;24.05;84.50;99481.19;715071;1200;114705;-83
2021/08/16 16:31:44;;;;;;;7.50;4.85;;;;;;;22.84;92.67;99383.22;714201;1200;114405;-82
2021/08/16 16:46:46;;;;;;;10.45;5.85;;;;;;;22.39;100.00;99350.80;714452;1178;114163;-82
2021/08/16 17:01:48;;;;;;;7.68;4.03;;;;;;;22.15;100.00;99358.02;714230;1203;114277;-82
2021/08/16 17:16:51;;;;;;;11.68;6.53;;;;;;;22.56;100.00;99300.11;714470;1205;113895;-84
2021/08/16 17:31:53;;;;;;;11.87;5.47;;;;;;;22.70;100.00;99283.78;715384;1174;114146;-85
2021/08/16 17:46:58;;;;;;;7.17;4.80;;;;;;;22.26;100.00;99298.45;716722;1199;114281;-84
2021/08/16 18:02:01;;;;;;;8.10;5.43;;;;;;;22.16;100.00;99308.08;714771;1184;114081;-77
2021/08/16 18:17:03;;;;;;;6.90;5.47;;;;;;;21.93;100.00;99325.77;714332;1177;114572;-74
2021/08/16 18:32:06;;;;;;;7.70;5.43;;;;;;;21.73;100.00;99336.80;714474;1202;114589;-75
2021/08/16 18:47:08;;;;;;;10.87;6.17;;;;;;;21.61;100.00;99355.47;714694;1178;113931;-75
2021/08/16 19:02:12;;;;;;;8.50;6.23;;;;;;;21.43;100.00;99342.99;714686;1200;114946;-76
2021/08/16 19:17:16;;;;;;;13.93;7.55;;;;;;;21.36;100.00;99355.63;715095;1200;115542;-75
2021/08/16 19:32:18;;;;;;;11.25;7.30;;;;;;;21.43;100.00;99351.83;714607;1203;114452;-74
2021/08/16 19:47:24;;;;;;;10.93;7.17;;;;;;;21.35;100.00;99320.13;713723;1205;114746;-76
2021/08/16 20:02:27;;;;;;;13.13;7.85;;;;;;;21.25;100.00;99346.57;713751;1203;114501;-76
2021/08/16 20:17:31;;;;;;;13.87;8.93;;;;;;;21.14;100.00;99318.01;714511;1201;115304;-75
2021/08/16 20:32:33;;;;;;;12.15;8.60;;;;;;;21.01;100.00;99346.50;714414;1177;114126;-74
2021/08/16 20:47:35;;;;;;;16.98;10.88;;;;;;;21.14;100.00;99350.80;714859;1177;114526;-74
2021/08/16 21:02:38;;;;;;;12.53;7.90;;;;;;;21.00;100.00;99365.39;714887;1205;114484;-74
2021/08/16 21:17:40;;;;;;;12.98;8.53;;;;;;;21.07;100.00;99374.09;714825;1177;114529;-74
2021/08/16 21:32:42;;;;;;;12.58;10.40;;;;;;;20.86;100.00;99370.07;714954;1175;115571;-75
2021/08/16 21:47:51;;;;;;;14.40;9.45;;;;;;;20.80;100.00;99365.63;714414;1199;114736;-75
2021/08/16 22:02:53;;;;;;;19.63;9.70;;;;;;;20.82;100.00;99359.05;714743;1179;115044;-74
2021/08/16 22:18:14;;;;;;;14.43;9.53;;;;;;;20.77;100.00;99362.39;714728;1203;114986;-74
2021/08/16 22:33:36;;;;;;;19.37;11.57;;;;;;;20.52;100.00;99365.13;714523;1180;115733;-75
2021/08/16 22:48:40;;;;;;;16.38;10.35;;;;;;;20.31;100.00;99353.08;715123;1200;115100;-76
2021/08/16 23:03:42;;;;;;;13.38;9.23;;;;;;;20.44;100.00;99347.59;714659;1205;114965;-75
2021/08/16 23:18:44;;;;;;;14.23;10.07;;;;;;;20.21;100.00;99364.23;714416;1189;115370;-75
2021/08/16 23:33:49;;;;;;;15.65;10.70;;;;;;;19.71;100.00;99356.28;714274;1203;114991;-75
2021/08/16 23:48:51;;;;;;;14.63;10.00;;;;;;;19.40;100.00;99348.14;714744;1200;115189;-75
